sensor_id;sensor_type;location;lat;lon;timestamp;P1;durP1;ratioP1;P2;durP2;ratioP2
64986;SDS011;67903;52.108;9.358;2023-04-10T00:02:08;32.90;;;23.90;;
64986;SDS011;67903;52.108;9.358;2023-04-10T00:04:35;32.90;;;22.77;;
64986;SDS011;67903;52.108;9.358;2023-04-10T00:07:01;30.58;;;23.40;;
64986;SDS011;67903;52.108;9.358;2023-04-10T00:09:29;35.38;;;24.23;;
64986;SDS011;67903;52.108;9.358;2023-04-10T00:11:56;33.25;;;23.75;;
64986;SDS011;67903;52.108;9.358;2023-04-10T00:14:22;32.53;;;23.48;;
64986;SDS011;67903;52.108;9.358;2023-04-10T00:16:49;35.45;;;23.75;;
64986;SDS011;67903;52.108;9.358;2023-04-10T00:19:16;32.22;;;23.42;;
64986;SDS011;67903;52.108;9.358;2023-04-10T00:21:43;31.08;;;24.17;;
64986;SDS011;67903;52.108;9.358;2023-04-10T00:24:10;34.53;;;24.33;;
64986;SDS011;67903;52.108;9.358;2023-04-10T00:26:37;32.28;;;23.50;;
64986;SDS011;67903;52.108;9.358;2023-04-10T00:29:03;31.08;;;23.33;;
64986;SDS011;67903;52.108;9.358;2023-04-10T00:31:30;29.05;;;21.83;;
64986;SDS011;67903;52.108;9.358;2023-04-10T00:33:57;34.40;;;23.48;;
64986;SDS011;67903;52.108;9.358;2023-04-10T00:36:24;30.27;;;21.70;;
64986;SDS011;67903;52.108;9.358;2023-04-10T00:38:52;29.35;;;21.52;;
64986;SDS011;67903;52.108;9.358;2023-04-10T00:41:18;26.70;;;20.35;;
64986;SDS011;67903;52.108;9.358;2023-04-10T00:43:45;26.85;;;20.35;;
64986;SDS011;67903;52.108;9.358;2023-04-10T00:46:12;29.83;;;21.23;;
64986;SDS011;67903;52.108;9.358;2023-04-10T00:48:39;28.60;;;20.98;;
64986;SDS011;67903;52.108;9.358;2023-04-10T00:51:06;28.98;;;21.80;;
64986;SDS011;67903;52.108;9.358;2023-04-10T00:53:33;30.63;;;22.17;;
64986;SDS011;67903;52.108;9.358;2023-04-10T00:56:00;30.15;;;21.63;;
64986;SDS011;67903;52.108;9.358;2023-04-10T00:58:27;27.48;;;21.23;;
64986;SDS011;67903;52.108;9.358;2023-04-10T01:00:54;28.30;;;22.23;;
64986;SDS011;67903;52.108;9.358;2023-04-10T01:03:21;32.80;;;22.80;;
64986;SDS011;67903;52.108;9.358;2023-04-10T01:05:51;31.40;;;22.50;;
64986;SDS011;67903;52.108;9.358;2023-04-10T01:14:06;33.33;;;22.73;;
64986;SDS011;67903;52.108;9.358;2023-04-10T01:16:42;33.28;;;24.35;;
64986;SDS011;67903;52.108;9.358;2023-04-10T01:19:41;32.08;;;23.60;;
64986;SDS011;67903;52.108;9.358;2023-04-10T01:22:11;35.45;;;24.75;;
64986;SDS011;67903;52.108;9.358;2023-04-10T01:24:49;32.67;;;24.08;;
64986;SDS011;67903;52.108;9.358;2023-04-10T01:29:53;33.42;;;24.95;;
64986;SDS011;67903;52.108;9.358;2023-04-10T01:32:23;34.90;;;25.00;;
64986;SDS011;67903;52.108;9.358;2023-04-10T01:34:53;34.88;;;26.42;;
64986;SDS011;67903;52.108;9.358;2023-04-10T01:37:29;37.80;;;25.52;;
64986;SDS011;67903;52.108;9.358;2023-04-10T01:40:00;34.38;;;25.70;;
64986;SDS011;67903;52.108;9.358;2023-04-10T01:42:30;36.67;;;25.30;;
64986;SDS011;67903;52.108;9.358;2023-04-10T01:45:00;37.15;;;24.55;;
64986;SDS011;67903;52.108;9.358;2023-04-10T01:47:28;37.53;;;26.67;;
64986;SDS011;67903;52.108;9.358;2023-04-10T01:49:56;39.90;;;26.67;;
64986;SDS011;67903;52.108;9.358;2023-04-10T01:52:23;36.88;;;26.75;;
64986;SDS011;67903;52.108;9.358;2023-04-10T01:55:04;36.67;;;24.88;;
64986;SDS011;67903;52.108;9.358;2023-04-10T01:57:42;35.92;;;25.25;;
64986;SDS011;67903;52.108;9.358;2023-04-10T02:00:11;36.38;;;24.23;;
64986;SDS011;67903;52.108;9.358;2023-04-10T02:02:41;32.40;;;23.45;;
64986;SDS011;67903;52.108;9.358;2023-04-10T02:05:09;33.40;;;22.70;;
64986;SDS011;67903;52.108;9.358;2023-04-10T02:10:12;35.70;;;24.65;;
64986;SDS011;67903;52.108;9.358;2023-04-10T02:12:49;34.50;;;23.83;;
64986;SDS011;67903;52.108;9.358;2023-04-10T02:15:21;35.83;;;24.33;;
64986;SDS011;67903;52.108;9.358;2023-04-10T02:17:52;32.42;;;23.20;;
64986;SDS011;67903;52.108;9.358;2023-04-10T02:20:20;31.33;;;22.58;;
64986;SDS011;67903;52.108;9.358;2023-04-10T02:22:48;33.67;;;24.08;;
64986;SDS011;67903;52.108;9.358;2023-04-10T02:25:15;33.58;;;24.08;;
64986;SDS011;67903;52.108;9.358;2023-04-10T02:27:42;33.38;;;22.35;;
64986;SDS011;67903;52.108;9.358;2023-04-10T02:30:10;34.67;;;24.70;;
64986;SDS011;67903;52.108;9.358;2023-04-10T02:32:37;33.55;;;23.58;;
64986;SDS011;67903;52.108;9.358;2023-04-10T02:35:06;33.75;;;23.80;;
64986;SDS011;67903;52.108;9.358;2023-04-10T02:37:35;30.08;;;21.33;;
64986;SDS011;67903;52.108;9.358;2023-04-10T02:40:02;31.10;;;22.75;;
64986;SDS011;67903;52.108;9.358;2023-04-10T02:42:38;30.10;;;22.70;;
64986;SDS011;67903;52.108;9.358;2023-04-10T02:45:06;32.03;;;23.08;;
64986;SDS011;67903;52.108;9.358;2023-04-10T02:47:37;31.23;;;22.27;;
64986;SDS011;67903;52.108;9.358;2023-04-10T02:50:04;30.67;;;22.42;;
64986;SDS011;67903;52.108;9.358;2023-04-10T02:52:35;31.77;;;21.92;;
64986;SDS011;67903;52.108;9.358;2023-04-10T02:55:02;29.48;;;22.08;;
64986;SDS011;67903;52.108;9.358;2023-04-10T02:57:33;31.70;;;23.45;;
64986;SDS011;67903;52.108;9.358;2023-04-10T03:00:01;31.40;;;23.33;;
64986;SDS011;67903;52.108;9.358;2023-04-10T03:02:47;35.00;;;23.77;;
64986;SDS011;67903;52.108;9.358;2023-04-10T03:05:17;31.75;;;22.73;;
64986;SDS011;67903;52.108;9.358;2023-04-10T03:07:44;32.03;;;22.55;;
64986;SDS011;67903;52.108;9.358;2023-04-10T03:10:11;31.80;;;22.85;;
64986;SDS011;67903;52.108;9.358;2023-04-10T03:12:38;30.70;;;22.42;;
64986;SDS011;67903;52.108;9.358;2023-04-10T03:15:05;33.30;;;23.70;;
64986;SDS011;67903;52.108;9.358;2023-04-10T03:17:32;31.90;;;22.40;;
64986;SDS011;67903;52.108;9.358;2023-04-10T03:20:00;33.38;;;23.38;;
64986;SDS011;67903;52.108;9.358;2023-04-10T03:22:28;33.08;;;24.20;;
64986;SDS011;67903;52.108;9.358;2023-04-10T03:24:58;32.80;;;24.05;;
64986;SDS011;67903;52.108;9.358;2023-04-10T03:27:25;34.25;;;24.55;;
64986;SDS011;67903;52.108;9.358;2023-04-10T03:29:52;33.28;;;24.45;;
64986;SDS011;67903;52.108;9.358;2023-04-10T03:32:19;36.78;;;25.67;;
64986;SDS011;67903;52.108;9.358;2023-04-10T03:34:46;35.65;;;25.48;;
64986;SDS011;67903;52.108;9.358;2023-04-10T03:37:12;37.25;;;25.67;;
64986;SDS011;67903;52.108;9.358;2023-04-10T03:39:40;38.00;;;26.45;;
64986;SDS011;67903;52.108;9.358;2023-04-10T03:42:06;35.30;;;24.95;;
64986;SDS011;67903;52.108;9.358;2023-04-10T03:44:34;33.38;;;24.55;;
64986;SDS011;67903;52.108;9.358;2023-04-10T03:47:01;36.20;;;25.13;;
64986;SDS011;67903;52.108;9.358;2023-04-10T03:49:29;35.90;;;24.98;;
64986;SDS011;67903;52.108;9.358;2023-04-10T03:52:02;35.28;;;25.25;;
64986;SDS011;67903;52.108;9.358;2023-04-10T03:54:29;36.83;;;26.15;;
64986;SDS011;67903;52.108;9.358;2023-04-10T03:56:56;35.33;;;25.67;;
64986;SDS011;67903;52.108;9.358;2023-04-10T03:59:24;37.45;;;25.58;;
64986;SDS011;67903;52.108;9.358;2023-04-10T04:02:06;34.22;;;24.58;;
64986;SDS011;67903;52.108;9.358;2023-04-10T04:04:33;36.22;;;26.45;;
64986;SDS011;67903;52.108;9.358;2023-04-10T04:07:19;36.75;;;26.02;;
64986;SDS011;67903;52.108;9.358;2023-04-10T04:09:57;35.65;;;25.63;;
64986;SDS011;67903;52.108;9.358;2023-04-10T04:12:40;36.67;;;26.55;;
64986;SDS011;67903;52.108;9.358;2023-04-10T04:15:26;38.40;;;26.23;;
64986;SDS011;67903;52.108;9.358;2023-04-10T04:18:11;33.95;;;24.98;;
64986;SDS011;67903;52.108;9.358;2023-04-10T04:20:40;33.92;;;25.15;;
64986;SDS011;67903;52.108;9.358;2023-04-10T04:23:33;34.53;;;24.63;;
64986;SDS011;67903;52.108;9.358;2023-04-10T04:26:30;36.45;;;24.80;;
64986;SDS011;67903;52.108;9.358;2023-04-10T04:29:29;37.25;;;25.23;;
64986;SDS011;67903;52.108;9.358;2023-04-10T04:32:11;35.83;;;24.40;;
64986;SDS011;67903;52.108;9.358;2023-04-10T04:34:53;32.53;;;24.15;;
64986;SDS011;67903;52.108;9.358;2023-04-10T04:37:34;34.88;;;24.88;;
64986;SDS011;67903;52.108;9.358;2023-04-10T04:40:36;36.30;;;25.08;;
64986;SDS011;67903;52.108;9.358;2023-04-10T04:43:14;34.55;;;23.95;;
64986;SDS011;67903;52.108;9.358;2023-04-10T04:45:54;33.80;;;25.70;;
64986;SDS011;67903;52.108;9.358;2023-04-10T04:48:47;37.33;;;25.80;;
64986;SDS011;67903;52.108;9.358;2023-04-10T04:51:32;34.88;;;25.27;;
64986;SDS011;67903;52.108;9.358;2023-04-10T04:54:03;35.70;;;25.80;;
64986;SDS011;67903;52.108;9.358;2023-04-10T04:56:39;34.83;;;23.98;;
64986;SDS011;67903;52.108;9.358;2023-04-10T04:59:21;33.63;;;24.92;;
64986;SDS011;67903;52.108;9.358;2023-04-10T05:01:56;34.03;;;25.00;;
64986;SDS011;67903;52.108;9.358;2023-04-10T05:04:53;35.95;;;24.83;;
64986;SDS011;67903;52.108;9.358;2023-04-10T05:07:36;36.00;;;24.38;;
64986;SDS011;67903;52.108;9.358;2023-04-10T05:10:12;35.92;;;25.25;;
64986;SDS011;67903;52.108;9.358;2023-04-10T05:12:48;35.00;;;25.25;;
64986;SDS011;67903;52.108;9.358;2023-04-10T05:15:20;33.53;;;24.95;;
64986;SDS011;67903;52.108;9.358;2023-04-10T05:17:56;33.72;;;24.52;;
64986;SDS011;67903;52.108;9.358;2023-04-10T05:20:40;32.78;;;23.92;;
64986;SDS011;67903;52.108;9.358;2023-04-10T05:23:16;30.05;;;23.23;;
64986;SDS011;67903;52.108;9.358;2023-04-10T05:26:12;33.35;;;24.02;;
64986;SDS011;67903;52.108;9.358;2023-04-10T05:28:53;32.80;;;24.20;;
64986;SDS011;67903;52.108;9.358;2023-04-10T05:31:40;32.38;;;24.38;;
64986;SDS011;67903;52.108;9.358;2023-04-10T05:34:12;31.17;;;24.23;;
64986;SDS011;67903;52.108;9.358;2023-04-10T05:36:50;33.13;;;23.92;;
64986;SDS011;67903;52.108;9.358;2023-04-10T05:39:40;31.48;;;22.55;;
64986;SDS011;67903;52.108;9.358;2023-04-10T05:42:25;30.00;;;22.98;;
64986;SDS011;67903;52.108;9.358;2023-04-10T05:45:16;33.05;;;23.15;;
64986;SDS011;67903;52.108;9.358;2023-04-10T05:48:01;30.15;;;22.65;;
64986;SDS011;67903;52.108;9.358;2023-04-10T05:50:40;32.13;;;23.77;;
64986;SDS011;67903;52.108;9.358;2023-04-10T05:53:13;30.58;;;22.27;;
64986;SDS011;67903;52.108;9.358;2023-04-10T05:56:01;31.38;;;23.02;;
64986;SDS011;67903;52.108;9.358;2023-04-10T05:58:40;30.52;;;22.77;;
64986;SDS011;67903;52.108;9.358;2023-04-10T06:01:10;30.67;;;22.50;;
64986;SDS011;67903;52.108;9.358;2023-04-10T06:03:45;30.33;;;22.95;;
64986;SDS011;67903;52.108;9.358;2023-04-10T06:06:14;28.40;;;22.50;;
64986;SDS011;67903;52.108;9.358;2023-04-10T06:08:41;27.23;;;22.05;;
64986;SDS011;67903;52.108;9.358;2023-04-10T06:11:08;33.92;;;23.85;;
64986;SDS011;67903;52.108;9.358;2023-04-10T06:13:36;31.35;;;22.95;;
64986;SDS011;67903;52.108;9.358;2023-04-10T06:16:03;31.95;;;22.23;;
64986;SDS011;67903;52.108;9.358;2023-04-10T06:18:31;28.17;;;21.98;;
64986;SDS011;67903;52.108;9.358;2023-04-10T06:20:58;28.10;;;21.75;;
64986;SDS011;67903;52.108;9.358;2023-04-10T06:23:27;29.40;;;21.90;;
64986;SDS011;67903;52.108;9.358;2023-04-10T06:25:54;30.27;;;22.08;;
64986;SDS011;67903;52.108;9.358;2023-04-10T06:28:21;27.73;;;21.25;;
64986;SDS011;67903;52.108;9.358;2023-04-10T06:30:52;26.13;;;21.88;;
64986;SDS011;67903;52.108;9.358;2023-04-10T06:33:27;29.77;;;21.65;;
64986;SDS011;67903;52.108;9.358;2023-04-10T06:35:54;29.88;;;22.15;;
64986;SDS011;67903;52.108;9.358;2023-04-10T06:38:21;27.60;;;21.50;;
64986;SDS011;67903;52.108;9.358;2023-04-10T06:40:48;26.20;;;21.77;;
64986;SDS011;67903;52.108;9.358;2023-04-10T06:43:16;29.35;;;21.77;;
64986;SDS011;67903;52.108;9.358;2023-04-10T06:45:43;28.40;;;22.20;;
64986;SDS011;67903;52.108;9.358;2023-04-10T06:48:10;26.08;;;21.08;;
64986;SDS011;67903;52.108;9.358;2023-04-10T06:50:37;31.05;;;22.27;;
64986;SDS011;67903;52.108;9.358;2023-04-10T06:53:04;28.80;;;22.13;;
64986;SDS011;67903;52.108;9.358;2023-04-10T06:55:31;28.25;;;21.50;;
64986;SDS011;67903;52.108;9.358;2023-04-10T06:57:58;27.15;;;21.92;;
64986;SDS011;67903;52.108;9.358;2023-04-10T07:00:25;28.55;;;22.33;;
64986;SDS011;67903;52.108;9.358;2023-04-10T07:02:51;27.20;;;21.17;;
64986;SDS011;67903;52.108;9.358;2023-04-10T07:05:19;30.83;;;22.80;;
64986;SDS011;67903;52.108;9.358;2023-04-10T07:07:46;28.50;;;21.70;;
64986;SDS011;67903;52.108;9.358;2023-04-10T07:10:12;27.58;;;22.63;;
64986;SDS011;67903;52.108;9.358;2023-04-10T07:12:39;28.58;;;22.08;;
64986;SDS011;67903;52.108;9.358;2023-04-10T07:15:06;27.25;;;21.15;;
64986;SDS011;67903;52.108;9.358;2023-04-10T07:17:33;27.95;;;20.65;;
64986;SDS011;67903;52.108;9.358;2023-04-10T07:20:00;28.40;;;22.05;;
64986;SDS011;67903;52.108;9.358;2023-04-10T07:22:27;25.98;;;20.90;;
64986;SDS011;67903;52.108;9.358;2023-04-10T07:24:54;27.90;;;21.02;;
64986;SDS011;67903;52.108;9.358;2023-04-10T07:27:21;27.23;;;21.55;;
64986;SDS011;67903;52.108;9.358;2023-04-10T07:29:52;26.90;;;20.45;;
64986;SDS011;67903;52.108;9.358;2023-04-10T07:32:20;26.30;;;20.70;;
64986;SDS011;67903;52.108;9.358;2023-04-10T07:34:47;24.40;;;20.05;;
64986;SDS011;67903;52.108;9.358;2023-04-10T07:37:14;26.73;;;20.80;;
64986;SDS011;67903;52.108;9.358;2023-04-10T07:39:40;23.83;;;20.05;;
64986;SDS011;67903;52.108;9.358;2023-04-10T07:42:07;22.75;;;19.65;;
64986;SDS011;67903;52.108;9.358;2023-04-10T07:44:36;23.52;;;19.10;;
64986;SDS011;67903;52.108;9.358;2023-04-10T07:47:03;23.30;;;19.10;;
64986;SDS011;67903;52.108;9.358;2023-04-10T07:49:29;23.67;;;19.40;;
64986;SDS011;67903;52.108;9.358;2023-04-10T07:51:56;25.63;;;19.52;;
64986;SDS011;67903;52.108;9.358;2023-04-10T07:54:23;23.83;;;19.13;;
64986;SDS011;67903;52.108;9.358;2023-04-10T07:56:53;23.15;;;19.33;;
64986;SDS011;67903;52.108;9.358;2023-04-10T07:59:20;21.83;;;18.17;;
64986;SDS011;67903;52.108;9.358;2023-04-10T08:01:47;20.13;;;17.92;;
64986;SDS011;67903;52.108;9.358;2023-04-10T08:04:13;22.85;;;18.50;;
64986;SDS011;67903;52.108;9.358;2023-04-10T08:06:40;19.15;;;16.40;;
64986;SDS011;67903;52.108;9.358;2023-04-10T08:09:07;21.27;;;17.02;;
64986;SDS011;67903;52.108;9.358;2023-04-10T08:11:34;18.15;;;15.95;;
64986;SDS011;67903;52.108;9.358;2023-04-10T08:14:04;16.15;;;14.32;;
64986;SDS011;67903;52.108;9.358;2023-04-10T08:16:33;15.80;;;13.80;;
64986;SDS011;67903;52.108;9.358;2023-04-10T08:19:01;15.68;;;14.07;;
64986;SDS011;67903;52.108;9.358;2023-04-10T08:21:28;15.38;;;13.50;;
64986;SDS011;67903;52.108;9.358;2023-04-10T08:23:57;15.07;;;13.48;;
64986;SDS011;67903;52.108;9.358;2023-04-10T08:26:26;15.40;;;13.23;;
64986;SDS011;67903;52.108;9.358;2023-04-10T08:28:55;15.65;;;13.40;;
64986;SDS011;67903;52.108;9.358;2023-04-10T08:31:23;13.93;;;12.52;;
64986;SDS011;67903;52.108;9.358;2023-04-10T08:33:52;15.18;;;13.25;;
64986;SDS011;67903;52.108;9.358;2023-04-10T08:36:19;14.15;;;12.18;;
64986;SDS011;67903;52.108;9.358;2023-04-10T08:38:47;15.50;;;12.35;;
64986;SDS011;67903;52.108;9.358;2023-04-10T08:41:17;19.23;;;16.23;;
64986;SDS011;67903;52.108;9.358;2023-04-10T08:43:45;16.45;;;14.65;;
64986;SDS011;67903;52.108;9.358;2023-04-10T08:46:12;17.13;;;13.82;;
64986;SDS011;67903;52.108;9.358;2023-04-10T08:49:02;25.52;;;20.05;;
64986;SDS011;67903;52.108;9.358;2023-04-10T08:51:33;27.00;;;20.75;;
64986;SDS011;67903;52.108;9.358;2023-04-10T08:54:05;22.27;;;17.90;;
64986;SDS011;67903;52.108;9.358;2023-04-10T08:56:33;16.73;;;14.00;;
64986;SDS011;67903;52.108;9.358;2023-04-10T08:59:01;20.80;;;17.02;;
64986;SDS011;67903;52.108;9.358;2023-04-10T09:01:28;13.73;;;11.35;;
64986;SDS011;67903;52.108;9.358;2023-04-10T09:03:56;14.32;;;12.20;;
64986;SDS011;67903;52.108;9.358;2023-04-10T09:06:24;18.48;;;15.10;;
64986;SDS011;67903;52.108;9.358;2023-04-10T09:08:51;10.75;;;9.65;;
64986;SDS011;67903;52.108;9.358;2023-04-10T09:11:18;16.05;;;14.25;;
64986;SDS011;67903;52.108;9.358;2023-04-10T09:13:45;15.32;;;13.32;;
64986;SDS011;67903;52.108;9.358;2023-04-10T09:16:12;12.93;;;11.25;;
64986;SDS011;67903;52.108;9.358;2023-04-10T09:18:43;9.98;;;8.95;;
64986;SDS011;67903;52.108;9.358;2023-04-10T09:21:19;14.00;;;12.38;;
64986;SDS011;67903;52.108;9.358;2023-04-10T09:23:47;13.32;;;11.85;;
64986;SDS011;67903;52.108;9.358;2023-04-10T09:26:28;13.77;;;11.70;;
64986;SDS011;67903;52.108;9.358;2023-04-10T09:29:00;13.52;;;12.02;;
64986;SDS011;67903;52.108;9.358;2023-04-10T09:31:37;11.48;;;10.30;;
64986;SDS011;67903;52.108;9.358;2023-04-10T09:34:06;10.45;;;9.45;;
64986;SDS011;67903;52.108;9.358;2023-04-10T09:36:33;10.02;;;9.02;;
64986;SDS011;67903;52.108;9.358;2023-04-10T09:39:00;9.48;;;8.50;;
64986;SDS011;67903;52.108;9.358;2023-04-10T09:41:27;9.45;;;8.55;;
64986;SDS011;67903;52.108;9.358;2023-04-10T09:44:09;9.73;;;8.70;;
64986;SDS011;67903;52.108;9.358;2023-04-10T09:46:37;9.48;;;8.55;;
64986;SDS011;67903;52.108;9.358;2023-04-10T09:49:04;9.77;;;8.60;;
64986;SDS011;67903;52.108;9.358;2023-04-10T09:51:33;9.02;;;7.97;;
64986;SDS011;67903;52.108;9.358;2023-04-10T09:54:01;9.70;;;8.70;;
64986;SDS011;67903;52.108;9.358;2023-04-10T09:56:29;8.43;;;7.70;;
64986;SDS011;67903;52.108;9.358;2023-04-10T09:58:57;9.38;;;8.35;;
64986;SDS011;67903;52.108;9.358;2023-04-10T10:01:25;10.52;;;8.43;;
64986;SDS011;67903;52.108;9.358;2023-04-10T10:03:53;10.63;;;8.10;;
64986;SDS011;67903;52.108;9.358;2023-04-10T10:06:21;9.02;;;7.93;;
64986;SDS011;67903;52.108;9.358;2023-04-10T10:08:48;8.88;;;7.97;;
64986;SDS011;67903;52.108;9.358;2023-04-10T10:11:22;8.93;;;7.57;;
64986;SDS011;67903;52.108;9.358;2023-04-10T10:13:51;8.05;;;7.25;;
64986;SDS011;67903;52.108;9.358;2023-04-10T10:16:39;8.73;;;7.85;;
64986;SDS011;67903;52.108;9.358;2023-04-10T10:21:56;10.18;;;8.75;;
64986;SDS011;67903;52.108;9.358;2023-04-10T10:24:26;9.60;;;8.60;;
64986;SDS011;67903;52.108;9.358;2023-04-10T10:26:54;8.77;;;7.70;;
64986;SDS011;67903;52.108;9.358;2023-04-10T10:29:23;14.18;;;11.48;;
64986;SDS011;67903;52.108;9.358;2023-04-10T10:31:51;19.00;;;12.98;;
64986;SDS011;67903;52.108;9.358;2023-04-10T10:34:19;13.52;;;11.38;;
64986;SDS011;67903;52.108;9.358;2023-04-10T10:36:46;22.27;;;16.77;;
64986;SDS011;67903;52.108;9.358;2023-04-10T10:39:20;13.90;;;12.10;;
64986;SDS011;67903;52.108;9.358;2023-04-10T10:42:02;12.82;;;10.18;;
64986;SDS011;67903;52.108;9.358;2023-04-10T10:45:12;10.63;;;7.53;;
64986;SDS011;67903;52.108;9.358;2023-04-10T10:47:48;8.73;;;7.80;;
64986;SDS011;67903;52.108;9.358;2023-04-10T10:50:17;7.63;;;6.93;;
64986;SDS011;67903;52.108;9.358;2023-04-10T10:52:50;7.93;;;7.22;;
64986;SDS011;67903;52.108;9.358;2023-04-10T10:57:54;8.95;;;8.00;;
64986;SDS011;67903;52.108;9.358;2023-04-10T11:00:22;7.07;;;6.38;;
64986;SDS011;67903;52.108;9.358;2023-04-10T11:13:29;7.05;;;6.35;;
64986;SDS011;67903;52.108;9.358;2023-04-10T11:15:56;6.50;;;5.80;;
64986;SDS011;67903;52.108;9.358;2023-04-10T11:19:10;8.15;;;6.68;;
64986;SDS011;67903;52.108;9.358;2023-04-10T11:21:21;6.78;;;5.93;;
64986;SDS011;67903;52.108;9.358;2023-04-10T11:29:00;5.65;;;5.15;;
64986;SDS011;67903;52.108;9.358;2023-04-10T11:31:46;6.55;;;5.85;;
64986;SDS011;67903;52.108;9.358;2023-04-10T11:34:20;5.63;;;5.13;;
64986;SDS011;67903;52.108;9.358;2023-04-10T11:36:47;6.75;;;6.15;;
64986;SDS011;67903;52.108;9.358;2023-04-10T11:39:14;6.55;;;5.85;;
64986;SDS011;67903;52.108;9.358;2023-04-10T11:41:48;6.63;;;6.03;;
64986;SDS011;67903;52.108;9.358;2023-04-10T11:44:18;6.30;;;5.70;;
64986;SDS011;67903;52.108;9.358;2023-04-10T11:46:51;7.00;;;6.30;;
64986;SDS011;67903;52.108;9.358;2023-04-10T11:49:22;6.45;;;5.85;;
64986;SDS011;67903;52.108;9.358;2023-04-10T11:51:51;6.82;;;6.18;;
64986;SDS011;67903;52.108;9.358;2023-04-10T11:54:22;6.75;;;6.15;;
64986;SDS011;67903;52.108;9.358;2023-04-10T11:57:00;6.20;;;5.60;;
64986;SDS011;67903;52.108;9.358;2023-04-10T11:59:32;6.07;;;5.47;;
64986;SDS011;67903;52.108;9.358;2023-04-10T12:02:09;6.70;;;5.95;;
64986;SDS011;67903;52.108;9.358;2023-04-10T12:04:40;7.47;;;5.57;;
64986;SDS011;67903;52.108;9.358;2023-04-10T12:07:08;6.30;;;5.75;;
64986;SDS011;67903;52.108;9.358;2023-04-10T12:09:35;6.30;;;5.63;;
64986;SDS011;67903;52.108;9.358;2023-04-10T12:12:03;6.20;;;5.40;;
64986;SDS011;67903;52.108;9.358;2023-04-10T12:14:31;7.00;;;5.88;;
64986;SDS011;67903;52.108;9.358;2023-04-10T12:17:03;6.65;;;4.97;;
64986;SDS011;67903;52.108;9.358;2023-04-10T12:19:32;5.70;;;5.20;;
64986;SDS011;67903;52.108;9.358;2023-04-10T12:21:59;6.68;;;6.03;;
64986;SDS011;67903;52.108;9.358;2023-04-10T12:24:45;5.72;;;5.18;;
64986;SDS011;67903;52.108;9.358;2023-04-10T12:29:56;5.25;;;4.75;;
64986;SDS011;67903;52.108;9.358;2023-04-10T12:32:24;5.90;;;5.43;;
64986;SDS011;67903;52.108;9.358;2023-04-10T12:34:53;6.55;;;5.65;;
64986;SDS011;67903;52.108;9.358;2023-04-10T12:37:45;5.50;;;5.00;;
64986;SDS011;67903;52.108;9.358;2023-04-10T12:40:17;5.88;;;5.28;;
64986;SDS011;67903;52.108;9.358;2023-04-10T12:42:45;5.50;;;5.00;;
64986;SDS011;67903;52.108;9.358;2023-04-10T12:45:12;5.70;;;5.20;;
64986;SDS011;67903;52.108;9.358;2023-04-10T12:47:47;5.03;;;4.53;;
64986;SDS011;67903;52.108;9.358;2023-04-10T12:50:17;5.47;;;4.97;;
64986;SDS011;67903;52.108;9.358;2023-04-10T12:53:00;6.32;;;5.53;;
64986;SDS011;67903;52.108;9.358;2023-04-10T12:55:28;7.95;;;7.15;;
64986;SDS011;67903;52.108;9.358;2023-04-10T12:57:55;7.63;;;5.78;;
64986;SDS011;67903;52.108;9.358;2023-04-10T13:00:22;5.70;;;5.20;;
64986;SDS011;67903;52.108;9.358;2023-04-10T13:02:50;5.18;;;4.68;;
64986;SDS011;67903;52.108;9.358;2023-04-10T13:05:17;5.05;;;4.63;;
64986;SDS011;67903;52.108;9.358;2023-04-10T13:07:45;5.18;;;4.78;;
64986;SDS011;67903;52.108;9.358;2023-04-10T13:10:12;5.57;;;5.00;;
64986;SDS011;67903;52.108;9.358;2023-04-10T13:12:38;5.38;;;4.88;;
64986;SDS011;67903;52.108;9.358;2023-04-10T13:15:07;5.20;;;4.70;;
64986;SDS011;67903;52.108;9.358;2023-04-10T13:17:35;5.40;;;4.90;;
64986;SDS011;67903;52.108;9.358;2023-04-10T13:20:02;5.38;;;4.88;;
64986;SDS011;67903;52.108;9.358;2023-04-10T13:22:29;6.40;;;5.38;;
64986;SDS011;67903;52.108;9.358;2023-04-10T13:24:56;26.58;;;15.98;;
64986;SDS011;67903;52.108;9.358;2023-04-10T13:27:23;5.38;;;4.88;;
64986;SDS011;67903;52.108;9.358;2023-04-10T13:29:49;6.68;;;6.00;;
64986;SDS011;67903;52.108;9.358;2023-04-10T13:32:16;5.35;;;4.85;;
64986;SDS011;67903;52.108;9.358;2023-04-10T13:34:43;5.25;;;4.85;;
64986;SDS011;67903;52.108;9.358;2023-04-10T13:37:10;5.40;;;4.88;;
64986;SDS011;67903;52.108;9.358;2023-04-10T13:39:38;5.07;;;4.32;;
64986;SDS011;67903;52.108;9.358;2023-04-10T13:42:05;5.90;;;5.38;;
64986;SDS011;67903;52.108;9.358;2023-04-10T13:44:32;6.05;;;5.45;;
64986;SDS011;67903;52.108;9.358;2023-04-10T13:46:58;6.32;;;5.72;;
64986;SDS011;67903;52.108;9.358;2023-04-10T13:49:25;5.30;;;4.80;;
64986;SDS011;67903;52.108;9.358;2023-04-10T13:51:55;4.53;;;4.13;;
64986;SDS011;67903;52.108;9.358;2023-04-10T13:54:22;4.68;;;4.15;;
64986;SDS011;67903;52.108;9.358;2023-04-10T13:56:49;5.07;;;4.20;;
64986;SDS011;67903;52.108;9.358;2023-04-10T13:59:16;4.80;;;4.40;;
64986;SDS011;67903;52.108;9.358;2023-04-10T14:01:43;4.88;;;4.25;;
64986;SDS011;67903;52.108;9.358;2023-04-10T14:04:09;3.90;;;3.50;;
64986;SDS011;67903;52.108;9.358;2023-04-10T14:06:36;4.68;;;4.22;;
64986;SDS011;67903;52.108;9.358;2023-04-10T14:09:03;4.78;;;4.30;;
64986;SDS011;67903;52.108;9.358;2023-04-10T14:11:30;4.63;;;3.60;;
64986;SDS011;67903;52.108;9.358;2023-04-10T14:13:56;3.75;;;3.45;;
64986;SDS011;67903;52.108;9.358;2023-04-10T14:16:23;4.28;;;3.88;;
64986;SDS011;67903;52.108;9.358;2023-04-10T14:18:50;3.13;;;2.92;;
64986;SDS011;67903;52.108;9.358;2023-04-10T14:21:17;3.95;;;3.50;;
64986;SDS011;67903;52.108;9.358;2023-04-10T14:23:46;4.65;;;3.85;;
64986;SDS011;67903;52.108;9.358;2023-04-10T14:26:12;4.00;;;3.60;;
64986;SDS011;67903;52.108;9.358;2023-04-10T14:28:39;4.43;;;4.03;;
64986;SDS011;67903;52.108;9.358;2023-04-10T14:31:06;3.63;;;3.33;;
64986;SDS011;67903;52.108;9.358;2023-04-10T14:33:33;3.70;;;3.33;;
64986;SDS011;67903;52.108;9.358;2023-04-10T14:36:00;3.78;;;3.47;;
64986;SDS011;67903;52.108;9.358;2023-04-10T14:38:27;3.28;;;3.08;;
64986;SDS011;67903;52.108;9.358;2023-04-10T14:40:54;3.53;;;3.22;;
64986;SDS011;67903;52.108;9.358;2023-04-10T14:43:20;3.58;;;3.25;;
64986;SDS011;67903;52.108;9.358;2023-04-10T14:45:47;3.65;;;3.33;;
64986;SDS011;67903;52.108;9.358;2023-04-10T14:48:14;3.65;;;3.35;;
64986;SDS011;67903;52.108;9.358;2023-04-10T14:50:41;7.68;;;5.47;;
64986;SDS011;67903;52.108;9.358;2023-04-10T14:53:08;4.63;;;3.83;;
64986;SDS011;67903;52.108;9.358;2023-04-10T14:55:35;3.83;;;3.10;;
64986;SDS011;67903;52.108;9.358;2023-04-10T14:58:02;2.72;;;2.53;;
64986;SDS011;67903;52.108;9.358;2023-04-10T15:00:30;3.65;;;2.78;;
64986;SDS011;67903;52.108;9.358;2023-04-10T15:02:58;3.85;;;3.25;;
64986;SDS011;67903;52.108;9.358;2023-04-10T15:05:25;2.85;;;2.65;;
64986;SDS011;67903;52.108;9.358;2023-04-10T15:07:53;2.72;;;2.53;;
64986;SDS011;67903;52.108;9.358;2023-04-10T15:10:20;2.50;;;2.30;;
64986;SDS011;67903;52.108;9.358;2023-04-10T15:12:47;4.13;;;2.85;;
64986;SDS011;67903;52.108;9.358;2023-04-10T15:15:14;3.63;;;2.90;;
64986;SDS011;67903;52.108;9.358;2023-04-10T15:17:40;2.80;;;2.50;;
64986;SDS011;67903;52.108;9.358;2023-04-10T15:20:07;2.75;;;2.55;;
64986;SDS011;67903;52.108;9.358;2023-04-10T15:22:35;2.67;;;2.40;;
64986;SDS011;67903;52.108;9.358;2023-04-10T15:25:02;3.28;;;2.97;;
64986;SDS011;67903;52.108;9.358;2023-04-10T15:27:29;2.85;;;2.40;;